sensor_id;sensor_type;location;lat;lon;timestamp;pressure;altitude;pressure_sealevel;temperature;humidity
40285;BME280;25997;50.214;19.354;2024-01-30T00:02:35;99569.56;;;2.50;50.75
40285;BME280;25997;50.214;19.354;2024-01-30T00:05:38;99567.34;;;2.55;50.59
40285;BME280;25997;50.214;19.354;2024-01-30T00:08:40;99567.09;;;2.52;50.68
40285;BME280;25997;50.214;19.354;2024-01-30T00:11:43;99565.66;;;2.55;50.85
40285;BME280;25997;50.214;19.354;2024-01-30T00:14:45;99562.28;;;2.56;50.74
40285;BME280;25997;50.214;19.354;2024-01-30T00:17:49;99559.41;;;2.53;50.80
40285;BME280;25997;50.214;19.354;2024-01-30T00:20:53;99557.75;;;2.54;50.83
40285;BME280;25997;50.214;19.354;2024-01-30T00:23:55;99551.91;;;2.56;50.79
40285;BME280;25997;50.214;19.354;2024-01-30T00:26:58;99551.38;;;2.60;50.69
40285;BME280;25997;50.214;19.354;2024-01-30T00:30:00;99562.00;;;2.63;50.79
40285;BME280;25997;50.214;19.354;2024-01-30T00:33:04;99556.28;;;2.67;50.64
40285;BME280;25997;50.214;19.354;2024-01-30T00:36:08;99555.88;;;2.73;50.60
40285;BME280;25997;50.214;19.354;2024-01-30T00:39:11;99556.25;;;2.78;50.35
40285;BME280;25997;50.214;19.354;2024-01-30T00:42:14;99559.72;;;2.78;50.37
40285;BME280;25997;50.214;19.354;2024-01-30T00:45:16;99554.53;;;2.78;50.33
40285;BME280;25997;50.214;19.354;2024-01-30T00:48:20;99561.44;;;2.78;50.24
40285;BME280;25997;50.214;19.354;2024-01-30T00:51:23;99551.56;;;2.73;50.28
40285;BME280;25997;50.214;19.354;2024-01-30T00:54:25;99545.25;;;2.70;50.31
40285;BME280;25997;50.214;19.354;2024-01-30T00:57:28;99544.22;;;2.68;50.29
40285;BME280;25997;50.214;19.354;2024-01-30T01:00:31;99544.13;;;2.66;50.08
40285;BME280;25997;50.214;19.354;2024-01-30T01:03:35;99541.75;;;2.69;50.00
40285;BME280;25997;50.214;19.354;2024-01-30T01:06:37;99541.34;;;2.75;50.07
40285;BME280;25997;50.214;19.354;2024-01-30T01:09:40;99532.91;;;2.78;49.64
40285;BME280;25997;50.214;19.354;2024-01-30T01:12:42;99540.69;;;2.78;49.63
40285;BME280;25997;50.214;19.354;2024-01-30T01:15:45;99539.63;;;2.75;49.68
40285;BME280;25997;50.214;19.354;2024-01-30T01:18:49;99533.84;;;2.68;49.69
40285;BME280;25997;50.214;19.354;2024-01-30T01:21:51;99531.00;;;2.65;49.86
40285;BME280;25997;50.214;19.354;2024-01-30T01:24:54;99530.88;;;2.63;49.98
40285;BME280;25997;50.214;19.354;2024-01-30T01:27:56;99528.28;;;2.63;49.87
40285;BME280;25997;50.214;19.354;2024-01-30T01:30:58;99514.78;;;2.67;49.79
40285;BME280;25997;50.214;19.354;2024-01-30T01:34:07;99528.94;;;2.71;49.60
40285;BME280;25997;50.214;19.354;2024-01-30T01:37:09;99523.66;;;2.81;49.32
40285;BME280;25997;50.214;19.354;2024-01-30T01:40:12;99520.97;;;2.80;49.00
40285;BME280;25997;50.214;19.354;2024-01-30T01:43:14;99523.03;;;2.73;49.09
40285;BME280;25997;50.214;19.354;2024-01-30T01:46:17;99525.81;;;2.65;49.34
40285;BME280;25997;50.214;19.354;2024-01-30T01:49:23;99518.31;;;2.58;49.42
40285;BME280;25997;50.214;19.354;2024-01-30T01:52:26;99512.00;;;2.54;49.38
40285;BME280;25997;50.214;19.354;2024-01-30T01:55:29;99512.09;;;2.56;49.40
40285;BME280;25997;50.214;19.354;2024-01-30T01:58:33;99513.03;;;2.56;49.23
40285;BME280;25997;50.214;19.354;2024-01-30T02:01:36;99504.47;;;2.57;49.09
40285;BME280;25997;50.214;19.354;2024-01-30T02:04:40;99510.97;;;2.52;49.22
40285;BME280;25997;50.214;19.354;2024-01-30T02:07:43;99505.31;;;2.46;49.31
40285;BME280;25997;50.214;19.354;2024-01-30T02:10:46;99501.16;;;2.48;49.26
40285;BME280;25997;50.214;19.354;2024-01-30T02:13:49;99506.03;;;2.55;48.83
40285;BME280;25997;50.214;19.354;2024-01-30T02:16:51;99504.59;;;2.59;48.92
40285;BME280;25997;50.214;19.354;2024-01-30T02:19:55;99510.81;;;2.61;48.74
40285;BME280;25997;50.214;19.354;2024-01-30T02:22:59;99509.88;;;2.60;48.82
40285;BME280;25997;50.214;19.354;2024-01-30T02:26:03;99507.56;;;2.63;48.69
40285;BME280;25997;50.214;19.354;2024-01-30T02:29:06;99514.41;;;2.63;48.62
40285;BME280;25997;50.214;19.354;2024-01-30T02:32:08;99501.19;;;2.60;48.76
40285;BME280;25997;50.214;19.354;2024-01-30T02:35:10;99504.31;;;2.56;48.83
40285;BME280;25997;50.214;19.354;2024-01-30T02:38:15;99515.25;;;2.52;48.74
40285;BME280;25997;50.214;19.354;2024-01-30T02:41:18;99511.63;;;2.50;48.71
40285;BME280;25997;50.214;19.354;2024-01-30T02:44:20;99509.69;;;2.47;48.75
40285;BME280;25997;50.214;19.354;2024-01-30T02:47:22;99510.34;;;2.45;48.66
40285;BME280;25997;50.214;19.354;2024-01-30T02:50:25;99503.22;;;2.42;48.70
40285;BME280;25997;50.214;19.354;2024-01-30T02:53:29;99493.16;;;2.35;48.78
40285;BME280;25997;50.214;19.354;2024-01-30T02:56:31;99495.38;;;2.31;48.72
40285;BME280;25997;50.214;19.354;2024-01-30T02:59:33;99496.69;;;2.26;49.06
40285;BME280;25997;50.214;19.354;2024-01-30T03:02:36;99489.44;;;2.22;48.91
40285;BME280;25997;50.214;19.354;2024-01-30T03:05:39;99488.91;;;2.16;49.04
40285;BME280;25997;50.214;19.354;2024-01-30T03:08:43;99486.22;;;2.14;49.02
40285;BME280;25997;50.214;19.354;2024-01-30T03:11:45;99486.09;;;2.13;49.16
40285;BME280;25997;50.214;19.354;2024-01-30T03:14:48;99491.41;;;2.14;48.99
40285;BME280;25997;50.214;19.354;2024-01-30T03:17:51;99488.03;;;2.15;49.00
40285;BME280;25997;50.214;19.354;2024-01-30T03:20:53;99496.69;;;2.16;49.09
40285;BME280;25997;50.214;19.354;2024-01-30T03:23:57;99485.56;;;2.17;48.76
40285;BME280;25997;50.214;19.354;2024-01-30T03:27:00;99487.41;;;2.18;48.76
40285;BME280;25997;50.214;19.354;2024-01-30T03:30:03;99484.13;;;2.20;48.69
40285;BME280;25997;50.214;19.354;2024-01-30T03:33:05;99485.69;;;2.18;48.75
40285;BME280;25997;50.214;19.354;2024-01-30T03:36:08;99499.53;;;2.19;48.75
40285;BME280;25997;50.214;19.354;2024-01-30T03:39:12;99486.59;;;2.19;48.84
40285;BME280;25997;50.214;19.354;2024-01-30T03:42:15;99494.38;;;2.19;48.71
40285;BME280;25997;50.214;19.354;2024-01-30T03:45:17;99492.03;;;2.22;48.68
40285;BME280;25997;50.214;19.354;2024-01-30T03:48:21;99495.38;;;2.21;48.69
40285;BME280;25997;50.214;19.354;2024-01-30T03:51:23;99490.75;;;2.17;48.79
40285;BME280;25997;50.214;19.354;2024-01-30T03:54:27;99481.69;;;2.22;48.76
40285;BME280;25997;50.214;19.354;2024-01-30T03:57:30;99489.81;;;2.26;48.57
40285;BME280;25997;50.214;19.354;2024-01-30T04:00:32;99487.88;;;2.24;48.59
40285;BME280;25997;50.214;19.354;2024-01-30T04:03:34;99488.66;;;2.23;48.47
40285;BME280;25997;50.214;19.354;2024-01-30T04:06:37;99483.75;;;2.16;48.56
40285;BME280;25997;50.214;19.354;2024-01-30T04:09:40;99487.41;;;2.08;48.50
40285;BME280;25997;50.214;19.354;2024-01-30T04:12:43;99481.97;;;2.05;48.76
40285;BME280;25997;50.214;19.354;2024-01-30T04:15:45;99481.19;;;2.06;48.93
40285;BME280;25997;50.214;19.354;2024-01-30T04:18:48;99477.84;;;2.07;48.66
40285;BME280;25997;50.214;19.354;2024-01-30T04:21:51;99490.66;;;2.05;48.74
40285;BME280;25997;50.214;19.354;2024-01-30T04:24:54;99479.38;;;2.05;48.81
40285;BME280;25997;50.214;19.354;2024-01-30T04:27:57;99477.69;;;2.05;48.73
40285;BME280;25997;50.214;19.354;2024-01-30T04:30:59;99482.50;;;2.00;48.70
40285;BME280;25997;50.214;19.354;2024-01-30T04:34:02;99477.84;;;1.96;48.58
40285;BME280;25997;50.214;19.354;2024-01-30T04:37:04;99486.25;;;1.94;48.65
40285;BME280;25997;50.214;19.354;2024-01-30T04:40:09;99480.06;;;1.92;48.63
40285;BME280;25997;50.214;19.354;2024-01-30T04:43:11;99479.56;;;1.86;48.84
40285;BME280;25997;50.214;19.354;2024-01-30T04:46:13;99475.94;;;1.84;48.91
40285;BME280;25997;50.214;19.354;2024-01-30T04:49:16;99481.13;;;1.84;49.13
40285;BME280;25997;50.214;19.354;2024-01-30T04:52:18;99482.25;;;1.87;48.69
40285;BME280;25997;50.214;19.354;2024-01-30T04:55:22;99480.72;;;1.89;48.75
40285;BME280;25997;50.214;19.354;2024-01-30T04:58:24;99480.06;;;1.92;48.64
40285;BME280;25997;50.214;19.354;2024-01-30T05:01:27;99481.88;;;1.93;48.56
40285;BME280;25997;50.214;19.354;2024-01-30T05:04:29;99486.16;;;1.92;48.37
40285;BME280;25997;50.214;19.354;2024-01-30T05:07:32;99486.69;;;1.88;48.67
40285;BME280;25997;50.214;19.354;2024-01-30T05:10:35;99485.28;;;1.82;48.77
40285;BME280;25997;50.214;19.354;2024-01-30T05:13:38;99483.19;;;1.78;48.97
40285;BME280;25997;50.214;19.354;2024-01-30T05:16:40;99485.91;;;1.79;48.84
40285;BME280;25997;50.214;19.354;2024-01-30T05:19:43;99487.09;;;1.73;49.04
40285;BME280;25997;50.214;19.354;2024-01-30T05:22:46;99479.97;;;1.70;48.87
40285;BME280;25997;50.214;19.354;2024-01-30T05:25:50;99478.78;;;1.67;49.01
40285;BME280;25997;50.214;19.354;2024-01-30T05:28:52;99486.31;;;1.64;49.25
40285;BME280;25997;50.214;19.354;2024-01-30T05:31:54;99477.25;;;1.59;49.22
40285;BME280;25997;50.214;19.354;2024-01-30T05:34:57;99473.63;;;1.57;49.32
40285;BME280;25997;50.214;19.354;2024-01-30T05:37:59;99473.25;;;1.52;49.10
40285;BME280;25997;50.214;19.354;2024-01-30T05:41:03;99465.88;;;1.47;49.27
40285;BME280;25997;50.214;19.354;2024-01-30T05:44:06;99469.13;;;1.44;49.42
40285;BME280;25997;50.214;19.354;2024-01-30T05:47:08;99467.31;;;1.43;49.41
40285;BME280;25997;50.214;19.354;2024-01-30T05:50:11;99470.69;;;1.42;49.32
40285;BME280;25997;50.214;19.354;2024-01-30T05:53:13;99478.81;;;1.47;49.09
40285;BME280;25997;50.214;19.354;2024-01-30T05:56:17;99485.94;;;1.49;49.24
40285;BME280;25997;50.214;19.354;2024-01-30T05:59:19;99487.22;;;1.54;49.03
40285;BME280;25997;50.214;19.354;2024-01-30T06:02:22;99491.75;;;1.57;48.94
40285;BME280;25997;50.214;19.354;2024-01-30T06:05:24;99492.66;;;1.57;48.95
40285;BME280;25997;50.214;19.354;2024-01-30T06:08:26;99490.72;;;1.55;49.22
40285;BME280;25997;50.214;19.354;2024-01-30T06:11:30;99496.81;;;1.55;49.25
40285;BME280;25997;50.214;19.354;2024-01-30T06:14:32;99498.09;;;1.50;49.20
40285;BME280;25997;50.214;19.354;2024-01-30T06:17:35;99500.69;;;1.50;49.26
40285;BME280;25997;50.214;19.354;2024-01-30T06:20:37;99493.03;;;1.52;49.39
40285;BME280;25997;50.214;19.354;2024-01-30T06:23:40;99488.91;;;1.54;49.35
40285;BME280;25997;50.214;19.354;2024-01-30T06:26:44;99487.22;;;1.54;49.42
40285;BME280;25997;50.214;19.354;2024-01-30T06:29:46;99486.69;;;1.58;49.52
40285;BME280;25997;50.214;19.354;2024-01-30T06:32:49;99488.28;;;1.66;49.33
40285;BME280;25997;50.214;19.354;2024-01-30T06:35:51;99489.41;;;1.70;49.03
40285;BME280;25997;50.214;19.354;2024-01-30T06:38:53;99484.75;;;1.76;48.97
40285;BME280;25997;50.214;19.354;2024-01-30T06:41:57;99482.16;;;1.76;48.95
40285;BME280;25997;50.214;19.354;2024-01-30T06:44:59;99485.53;;;1.75;49.09
40285;BME280;25997;50.214;19.354;2024-01-30T06:48:02;99489.28;;;1.78;49.00
40285;BME280;25997;50.214;19.354;2024-01-30T06:51:04;99495.47;;;1.80;48.96
40285;BME280;25997;50.214;19.354;2024-01-30T06:54:07;99488.63;;;1.81;48.86
40285;BME280;25997;50.214;19.354;2024-01-30T06:57:11;99483.44;;;1.81;48.88
40285;BME280;25997;50.214;19.354;2024-01-30T07:00:16;99485.66;;;1.76;49.15
40285;BME280;25997;50.214;19.354;2024-01-30T07:03:20;99491.63;;;1.75;49.39
40285;BME280;25997;50.214;19.354;2024-01-30T07:06:22;99495.25;;;1.77;49.34
40285;BME280;25997;50.214;19.354;2024-01-30T07:09:25;99494.59;;;1.80;49.34
40285;BME280;25997;50.214;19.354;2024-01-30T07:12:30;99507.13;;;1.85;49.20
40285;BME280;25997;50.214;19.354;2024-01-30T07:15:33;99501.56;;;1.91;49.05
40285;BME280;25997;50.214;19.354;2024-01-30T07:18:35;99498.69;;;1.98;48.93
40285;BME280;25997;50.214;19.354;2024-01-30T07:21:38;99502.56;;;2.03;48.91
40285;BME280;25997;50.214;19.354;2024-01-30T07:24:42;99501.91;;;2.06;48.89
40285;BME280;25997;50.214;19.354;2024-01-30T07:27:50;99499.81;;;2.12;48.71
40285;BME280;25997;50.214;19.354;2024-01-30T07:30:52;99504.47;;;2.16;48.82
40285;BME280;25997;50.214;19.354;2024-01-30T07:33:55;99501.59;;;2.23;48.88
40285;BME280;25997;50.214;19.354;2024-01-30T07:36:57;99496.78;;;2.27;48.64
40285;BME280;25997;50.214;19.354;2024-01-30T07:40:00;99501.69;;;2.34;48.68
40285;BME280;25997;50.214;19.354;2024-01-30T07:43:05;99499.84;;;2.43;48.48
40285;BME280;25997;50.214;19.354;2024-01-30T07:46:07;99504.75;;;2.50;48.63
40285;BME280;25997;50.214;19.354;2024-01-30T07:49:09;99496.81;;;2.59;48.50
40285;BME280;25997;50.214;19.354;2024-01-30T07:52:12;99499.59;;;2.72;48.52
40285;BME280;25997;50.214;19.354;2024-01-30T07:55:14;99496.56;;;2.88;48.20
40285;BME280;25997;50.214;19.354;2024-01-30T07:58:18;99495.72;;;2.99;48.03
40285;BME280;25997;50.214;19.354;2024-01-30T08:01:21;99494.97;;;3.00;48.13
40285;BME280;25997;50.214;19.354;2024-01-30T08:04:23;99489.31;;;3.05;48.26
40285;BME280;25997;50.214;19.354;2024-01-30T08:07:25;99498.59;;;3.13;47.87
40285;BME280;25997;50.214;19.354;2024-01-30T08:10:30;99496.16;;;3.15;47.95
40285;BME280;25997;50.214;19.354;2024-01-30T08:13:34;99508.47;;;3.17;47.99
40285;BME280;25997;50.214;19.354;2024-01-30T08:16:36;99500.34;;;3.24;47.67
40285;BME280;25997;50.214;19.354;2024-01-30T08:19:39;99507.72;;;3.30;47.74
40285;BME280;25997;50.214;19.354;2024-01-30T08:22:41;99515.09;;;3.35;47.67
40285;BME280;25997;50.214;19.354;2024-01-30T08:25:43;99505.47;;;3.34;47.61
40285;BME280;25997;50.214;19.354;2024-01-30T08:28:47;99519.06;;;3.42;47.65
40285;BME280;25997;50.214;19.354;2024-01-30T08:31:50;99515.03;;;3.57;47.48
40285;BME280;25997;50.214;19.354;2024-01-30T08:34:53;99511.22;;;3.64;47.33
40285;BME280;25997;50.214;19.354;2024-01-30T08:37:55;99504.81;;;3.70;47.43
40285;BME280;25997;50.214;19.354;2024-01-30T08:40:58;99511.38;;;3.77;47.34
40285;BME280;25997;50.214;19.354;2024-01-30T08:44:02;99507.06;;;3.89;47.48
40285;BME280;25997;50.214;19.354;2024-01-30T08:47:05;99505.31;;;3.99;47.22
40285;BME280;25997;50.214;19.354;2024-01-30T08:50:08;99508.47;;;4.07;47.18
40285;BME280;25997;50.214;19.354;2024-01-30T08:53:10;99511.53;;;4.13;46.96
40285;BME280;25997;50.214;19.354;2024-01-30T08:56:13;99509.50;;;4.20;47.16
40285;BME280;25997;50.214;19.354;2024-01-30T08:59:18;99515.28;;;4.28;46.93
40285;BME280;25997;50.214;19.354;2024-01-30T09:02:21;99513.59;;;4.29;46.61
40285;BME280;25997;50.214;19.354;2024-01-30T09:05:23;99517.28;;;4.09;46.57
40285;BME280;25997;50.214;19.354;2024-01-30T09:08:25;99515.03;;;4.25;46.67
40285;BME280;25997;50.214;19.354;2024-01-30T09:11:28;99509.06;;;4.26;46.36
40285;BME280;25997;50.214;19.354;2024-01-30T09:14:32;99510.84;;;4.27;46.22
40285;BME280;25997;50.214;19.354;2024-01-30T09:17:34;99506.22;;;4.23;46.05
40285;BME280;25997;50.214;19.354;2024-01-30T09:20:37;99511.41;;;4.23;45.65
40285;BME280;25997;50.214;19.354;2024-01-30T09:23:39;99508.59;;;4.43;45.80
40285;BME280;25997;50.214;19.354;2024-01-30T09:26:42;99504.09;;;4.75;45.62
40285;BME280;25997;50.214;19.354;2024-01-30T09:29:45;99510.63;;;4.82;44.89
40285;BME280;25997;50.214;19.354;2024-01-30T09:32:48;99506.44;;;4.84;44.64
40285;BME280;25997;50.214;19.354;2024-01-30T09:35:50;99508.25;;;4.73;44.43
40285;BME280;25997;50.214;19.354;2024-01-30T09:38:53;99515.09;;;4.96;44.64
40285;BME280;25997;50.214;19.354;2024-01-30T09:42:01;99508.19;;;4.97;43.47
40285;BME280;25997;50.214;19.354;2024-01-30T09:45:06;99512.00;;;5.13;43.98
40285;BME280;25997;50.214;19.354;2024-01-30T09:48:09;99511.19;;;5.14;43.76
40285;BME280;25997;50.214;19.354;2024-01-30T09:51:14;99505.25;;;5.40;43.59
40285;BME280;25997;50.214;19.354;2024-01-30T09:54:19;99498.84;;;5.48;43.37
40285;BME280;25997;50.214;19.354;2024-01-30T09:57:23;99494.09;;;5.67;43.44
40285;BME280;25997;50.214;19.354;2024-01-30T10:00:31;99494.56;;;5.86;43.16
40285;BME280;25997;50.214;19.354;2024-01-30T10:03:39;99487.53;;;5.98;42.91
40285;BME280;25997;50.214;19.354;2024-01-30T10:06:50;99485.38;;;6.17;42.94
40285;BME280;25997;50.214;19.354;2024-01-30T10:09:58;99474.75;;;6.41;42.04
40285;BME280;25997;50.214;19.354;2024-01-30T10:13:14;99486.59;;;6.75;43.98
40285;BME280;25997;50.214;19.354;2024-01-30T10:16:53;99473.91;;;7.22;43.53
40285;BME280;25997;50.214;19.354;2024-01-30T10:19:59;99471.44;;;7.80;43.45
40285;BME280;25997;50.214;19.354;2024-01-30T10:23:01;99471.34;;;8.22;42.98
40285;BME280;25997;50.214;19.354;2024-01-30T10:26:07;99465.53;;;8.42;41.93
40285;BME280;25997;50.214;19.354;2024-01-30T10:29:12;99459.44;;;8.73;42.18
40285;BME280;25997;50.214;19.354;2024-01-30T10:32:28;99453.63;;;8.78;40.07
40285;BME280;25997;50.214;19.354;2024-01-30T10:35:42;99458.53;;;8.72;40.25
40285;BME280;25997;50.214;19.354;2024-01-30T10:38:45;99448.31;;;8.77;39.44
40285;BME280;25997;50.214;19.354;2024-01-30T10:41:59;99443.34;;;8.67;38.78
40285;BME280;25997;50.214;19.354;2024-01-30T10:45:14;99444.84;;;8.62;38.50
40285;BME280;25997;50.214;19.354;2024-01-30T10:48:27;99435.75;;;8.71;37.90
40285;BME280;25997;50.214;19.354;2024-01-30T10:51:39;99430.06;;;9.41;39.45
40285;BME280;25997;50.214;19.354;2024-01-30T10:54:57;99425.81;;;9.77;38.88
40285;BME280;25997;50.214;19.354;2024-01-30T10:58:07;99419.38;;;10.04;38.81
40285;BME280;25997;50.214;19.354;2024-01-30T11:01:16;99421.34;;;10.08;38.77
40285;BME280;25997;50.214;19.354;2024-01-30T11:04:24;99418.19;;;10.33;37.88
40285;BME280;25997;50.214;19.354;2024-01-30T11:07:31;99408.72;;;10.54;38.25
40285;BME280;25997;50.214;19.354;2024-01-30T11:10:44;99411.63;;;10.60;36.90
40285;BME280;25997;50.214;19.354;2024-01-30T11:13:51;99409.16;;;10.63;37.54
40285;BME280;25997;50.214;19.354;2024-01-30T11:16:57;99410.34;;;10.69;36.20
40285;BME280;25997;50.214;19.354;2024-01-30T11:20:02;99413.31;;;10.95;35.71
40285;BME280;25997;50.214;19.354;2024-01-30T11:23:05;99405.63;;;10.99;36.34
40285;BME280;25997;50.214;19.354;2024-01-30T11:26:10;99398.50;;;10.42;34.43
40285;BME280;25997;50.214;19.354;2024-01-30T11:29:13;99397.94;;;9.79;35.39
40285;BME280;25997;50.214;19.354;2024-01-30T11:32:22;99397.06;;;9.12;35.00
40285;BME280;25997;50.214;19.354;2024-01-30T11:35:26;99405.63;;;9.76;35.97
40285;BME280;25997;50.214;19.354;2024-01-30T11:38:29;99387.28;;;9.76;35.82
40285;BME280;25997;50.214;19.354;2024-01-30T11:41:32;99384.88;;;9.80;35.84
40285;BME280;25997;50.214;19.354;2024-01-30T11:44:35;99389.19;;;9.62;35.30
40285;BME280;25997;50.214;19.354;2024-01-30T11:47:37;99382.84;;;9.57;34.87
40285;BME280;25997;50.214;19.354;2024-01-30T11:50:43;99384.88;;;9.80;35.28
40285;BME280;25997;50.214;19.354;2024-01-30T11:53:49;99380.16;;;10.07;34.42
40285;BME280;25997;50.214;19.354;2024-01-30T11:56:52;99384.03;;;9.97;35.33
40285;BME280;25997;50.214;19.354;2024-01-30T11:59:55;99371.69;;;10.30;34.86
40285;BME280;25997;50.214;19.354;2024-01-30T12:02:57;99372.28;;;10.79;34.93
40285;BME280;25997;50.214;19.354;2024-01-30T12:06:03;99370.59;;;10.62;33.66
40285;BME280;25997;50.214;19.354;2024-01-30T12:09:06;99366.34;;;10.46;33.96
40285;BME280;25997;50.214;19.354;2024-01-30T12:12:09;99365.34;;;10.62;34.28
40285;BME280;25997;50.214;19.354;2024-01-30T12:15:14;99355.47;;;10.75;34.57
40285;BME280;25997;50.214;19.354;2024-01-30T12:18:18;99355.84;;;11.40;34.52
40285;BME280;25997;50.214;19.354;2024-01-30T12:21:23;99350.88;;;11.47;33.92
40285;BME280;25997;50.214;19.354;2024-01-30T12:24:25;99342.44;;;11.76;34.08
40285;BME280;25997;50.214;19.354;2024-01-30T12:27:29;99345.88;;;12.14;33.23
40285;BME280;25997;50.214;19.354;2024-01-30T12:30:32;99345.94;;;11.95;32.04
40285;BME280;25997;50.214;19.354;2024-01-30T12:33:36;99340.03;;;11.60;33.75
40285;BME280;25997;50.214;19.354;2024-01-30T12:36:40;99332.00;;;11.77;33.58
40285;BME280;25997;50.214;19.354;2024-01-30T12:39:42;99327.38;;;11.72;33.28
40285;BME280;25997;50.214;19.354;2024-01-30T12:42:46;99328.28;;;12.13;33.65
40285;BME280;25997;50.214;19.354;2024-01-30T12:45:52;99324.25;;;12.44;32.16
40285;BME280;25997;50.214;19.354;2024-01-30T12:48:54;99323.19;;;12.62;32.95
40285;BME280;25997;50.214;19.354;2024-01-30T12:51:59;99332.22;;;12.91;32.34
40285;BME280;25997;50.214;19.354;2024-01-30T12:55:02;99317.75;;;13.04;32.56
40285;BME280;25997;50.214;19.354;2024-01-30T12:58:05;99321.28;;;13.26;32.52
40285;BME280;25997;50.214;19.354;2024-01-30T13:01:08;99319.38;;;13.00;31.59
40285;BME280;25997;50.214;19.354;2024-01-30T13:04:10;99325.88;;;13.08;32.17
40285;BME280;25997;50.214;19.354;2024-01-30T13:07:15;99324.84;;;13.53;32.49
40285;BME280;25997;50.214;19.354;2024-01-30T13:10:18;99318.59;;;14.00;32.25
40285;BME280;25997;50.214;19.354;2024-01-30T13:13:20;99316.38;;;14.41;31.68
40285;BME280;25997;50.214;19.354;2024-01-30T13:16:23;99312.00;;;14.41;31.68
40285;BME280;25997;50.214;19.354;2024-01-30T13:19:25;99310.91;;;14.34;31.37
40285;BME280;25997;50.214;19.354;2024-01-30T13:22:29;99308.94;;;14.29;30.59
40285;BME280;25997;50.214;19.354;2024-01-30T13:25:33;99307.50;;;14.39;31.83
40285;BME280;25997;50.214;19.354;2024-01-30T13:28:35;99309.41;;;14.16;31.44
40285;BME280;25997;50.214;19.354;2024-01-30T13:31:38;99306.69;;;14.13;31.23
40285;BME280;25997;50.214;19.354;2024-01-30T13:34:42;99309.19;;;13.83;31.13
40285;BME280;25997;50.214;19.354;2024-01-30T13:37:45;99317.75;;;13.51;30.86
40285;BME280;25997;50.214;19.354;2024-01-30T13:40:49;99309.59;;;13.45;31.10
40285;BME280;25997;50.214;19.354;2024-01-30T13:43:51;99316.03;;;13.28;30.84
40285;BME280;25997;50.214;19.354;2024-01-30T13:46:54;99310.53;;;13.71;30.97
40285;BME280;25997;50.214;19.354;2024-01-30T13:49:57;99305.59;;;13.81;30.61
40285;BME280;25997;50.214;19.354;2024-01-30T13:53:02;99309.50;;;13.92;30.24
40285;BME280;25997;50.214;19.354;2024-01-30T13:56:05;99299.84;;;14.19;30.14
40285;BME280;25997;50.214;19.354;2024-01-30T13:59:08;99311.25;;;14.18;30.09
40285;BME280;25997;50.214;19.354;2024-01-30T14:02:10;99303.44;;;13.95;30.07
40285;BME280;25997;50.214;19.354;2024-01-30T14:05:13;99299.59;;;13.87;30.12
40285;BME280;25997;50.214;19.354;2024-01-30T14:08:17;99304.41;;;13.97;30.10
40285;BME280;25997;50.214;19.354;2024-01-30T14:11:22;99297.06;;;14.15;29.78
40285;BME280;25997;50.214;19.354;2024-01-30T14:14:24;99296.16;;;14.43;29.75
40285;BME280;25997;50.214;19.354;2024-01-30T14:17:27;99291.69;;;14.40;29.52
40285;BME280;25997;50.214;19.354;2024-01-30T14:20:29;99290.13;;;14.18;29.50
40285;BME280;25997;50.214;19.354;2024-01-30T14:23:33;99294.72;;;14.24;29.53
40285;BME280;25997;50.214;19.354;2024-01-30T14:26:36;99294.78;;;14.27;29.70
40285;BME280;25997;50.214;19.354;2024-01-30T14:29:39;99280.78;;;14.29;29.62
40285;BME280;25997;50.214;19.354;2024-01-30T14:32:43;99286.78;;;14.24;29.44
40285;BME280;25997;50.214;19.354;2024-01-30T14:35:45;99290.97;;;14.44;29.27
40285;BME280;25997;50.214;19.354;2024-01-30T14:38:49;99288.56;;;14.25;29.08
40285;BME280;25997;50.214;19.354;2024-01-30T14:41:52;99279.19;;;14.06;29.24
40285;BME280;25997;50.214;19.354;2024-01-30T14:44:55;99281.84;;;13.81;28.95
40285;BME280;25997;50.214;19.354;2024-01-30T14:47:57;99282.06;;;13.62;29.21
40285;BME280;25997;50.214;19.354;2024-01-30T14:51:00;99280.44;;;13.66;29.17
40285;BME280;25997;50.214;19.354;2024-01-30T14:54:04;99277.66;;;13.62;28.94
40285;BME280;25997;50.214;19.354;2024-01-30T14:57:07;99283.38;;;13.49;29.18
40285;BME280;25997;50.214;19.354;2024-01-30T15:00:11;99285.13;;;13.24;29.33
40285;BME280;25997;50.214;19.354;2024-01-30T15:03:15;99283.03;;;12.91;29.60
40285;BME280;25997;50.214;19.354;2024-01-30T15:06:18;99287.34;;;12.66;29.58
40285;BME280;25997;50.214;19.354;2024-01-30T15:09:22;99286.84;;;12.54;29.92
40285;BME280;25997;50.214;19.354;2024-01-30T15:12:27;99288.44;;;12.49;29.82
40285;BME280;25997;50.214;19.354;2024-01-30T15:15:29;99285.63;;;12.22;29.86
40285;BME280;25997;50.214;19.354;2024-01-30T15:18:32;99276.66;;;11.76;30.27
40285;BME280;25997;50.214;19.354;2024-01-30T15:21:34;99277.94;;;11.23;30.73
40285;BME280;25997;50.214;19.354;2024-01-30T15:24:38;99273.03;;;10.73;31.22
40285;BME280;25997;50.214;19.354;2024-01-30T15:27:40;99269.25;;;10.29;31.72
40285;BME280;25997;50.214;19.354;2024-01-30T15:30:43;99271.03;;;9.94;31.98
40285;BME280;25997;50.214;19.354;2024-01-30T15:33:45;99280.88;;;9.63;32.42
40285;BME280;25997;50.214;19.354;2024-01-30T15:36:47;99282.03;;;9.35;32.54
40285;BME280;25997;50.214;19.354;2024-01-30T15:39:51;99271.28;;;9.12;32.95
40285;BME280;25997;50.214;19.354;2024-01-30T15:42:54;99272.78;;;8.91;33.13
40285;BME280;25997;50.214;19.354;2024-01-30T15:45:56;99280.53;;;8.74;33.37
40285;BME280;25997;50.214;19.354;2024-01-30T15:48:59;99275.22;;;8.56;33.59
40285;BME280;25997;50.214;19.354;2024-01-30T15:52:01;99266.47;;;8.39;33.77
40285;BME280;25997;50.214;19.354;2024-01-30T15:55:06;99265.72;;;8.26;34.00
40285;BME280;25997;50.214;19.354;2024-01-30T15:58:08;99276.41;;;8.14;34.21
40285;BME280;25997;50.214;19.354;2024-01-30T16:01:10;99271.31;;;8.01;34.34
40285;BME280;25997;50.214;19.354;2024-01-30T16:04:13;99267.84;;;7.86;34.60
40285;BME280;25997;50.214;19.354;2024-01-30T16:07:15;99273.94;;;7.70;35.00
40285;BME280;25997;50.214;19.354;2024-01-30T16:10:20;99271.13;;;7.53;35.30